Time;durP1;ratioP1;P1;durP2;ratioP2;P2;SDS_P1;SDS_P2;PMS_P1;PMS_P2;Temp;Humidity;BMP_temperature;BMP_pressure;BME280_temperature;BME280_humidity;BME280_pressure;Samples;Min_cycle;Max_cycle;Signal;HPM_P1;HPM_P2
2021/12/12 00:01:09;;;;;;;71.07;24.40;;;;;;;3.34;nan;99738.28;5021042;28;19913;-72
2021/12/12 00:04:04;;;;;;;69.63;24.58;;;;;;;3.71;nan;99793.47;5016538;28;20427;-73
2021/12/12 00:06:57;;;;;;;67.63;23.13;;;;;;;3.62;nan;99780.66;5046864;28;20079;-73
2021/12/12 00:09:45;;;;;;;73.35;25.52;;;;;;;3.73;nan;99786.28;5038729;28;20052;-73
2021/12/12 00:12:38;;;;;;;72.30;25.23;;;;;;;3.73;nan;99787.09;5031132;28;20049;-73
2021/12/12 00:15:24;;;;;;;66.20;24.88;;;;;;;3.67;nan;99774.84;5031014;28;20037;-73
2021/12/12 00:18:10;;;;;;;65.65;22.63;;;;;;;3.73;nan;99786.28;5043505;28;20037;-72
2021/12/12 00:20:56;;;;;;;63.83;24.08;;;;;;;3.72;nan;99793.31;5039269;28;20049;-73
2021/12/12 00:23:42;;;;;;;61.28;22.92;;;;;;;3.65;nan;99776.06;5031001;28;20394;-73
2021/12/12 00:26:28;;;;;;;68.07;24.73;;;;;;;3.70;nan;99786.69;5030603;28;20033;-73
2021/12/12 00:29:16;;;;;;;73.32;25.00;;;;;;;3.63;nan;99777.03;5019163;28;20045;-73
2021/12/12 00:32:07;;;;;;;82.88;28.88;;;;;;;3.66;nan;99788.06;5031947;28;20124;-72
2021/12/12 00:34:59;;;;;;;66.82;26.48;;;;;;;3.63;nan;99782.25;5032049;28;20040;-73
2021/12/12 00:37:45;;;;;;;67.22;25.70;;;;;;;3.47;nan;99768.75;5030153;28;20041;-72
2021/12/12 00:40:43;;;;;;;66.43;25.35;;;;;;;3.50;nan;99781.41;5030758;28;20092;-69
2021/12/12 00:43:33;;;;;;;71.20;26.05;;;;;;;3.24;nan;99758.66;5030790;28;20037;-69
2021/12/12 00:46:22;;;;;;;65.28;26.23;;;;;;;3.45;nan;99800.19;5011665;28;20121;-69
2021/12/12 00:49:08;;;;;;;68.05;26.73;;;;;;;3.31;nan;99780.31;5028813;28;20059;-69
2021/12/12 00:51:55;;;;;;;67.85;25.27;;;;;;;3.38;nan;99794.16;5021742;28;20130;-69
2021/12/12 00:54:44;;;;;;;62.40;24.63;;;;;;;3.32;nan;99789.72;5029175;28;20439;-69
2021/12/12 00:57:30;;;;;;;65.50;25.45;;;;;;;3.30;nan;99787.28;5029165;28;20139;-69
2021/12/12 01:00:18;;;;;;;71.30;26.40;;;;;;;3.27;nan;99784.28;5029728;28;20043;-70
2021/12/12 01:03:09;;;;;;;75.65;25.40;;;;;;;3.22;nan;99776.25;5020793;28;20049;-69
2021/12/12 01:05:58;;;;;;;64.38;22.55;;;;;;;3.17;nan;99767.22;5024745;28;20045;-70
2021/12/12 01:08:46;;;;;;;62.30;24.55;;;;;;;3.20;nan;99777.22;5029507;28;20411;-69
2021/12/12 01:11:39;;;;;;;62.22;23.52;;;;;;;3.20;nan;99781.63;5020779;28;20030;-70
2021/12/12 01:14:31;;;;;;;60.20;23.98;;;;;;;3.13;nan;99770.41;5027947;28;20037;-68
2021/12/12 01:17:22;;;;;;;59.83;23.67;;;;;;;3.09;nan;99777.78;5028877;28;20033;-69
2021/12/12 01:20:28;;;;;;;54.63;21.50;;;;;;;3.11;nan;99780.19;5011056;28;20034;-69
2021/12/12 01:23:22;;;;;;;60.33;24.27;;;;;;;3.07;nan;99776.38;5021109;28;20520;-69
2021/12/12 01:26:08;;;;;;;59.17;23.73;;;;;;;3.05;nan;99773.16;5018884;28;20120;-73
2021/12/12 01:28:56;;;;;;;62.47;24.83;;;;;;;3.03;nan;99770.75;5031644;28;20060;-72
2021/12/12 01:31:47;;;;;;;60.35;24.40;;;;;;;3.01;nan;99761.53;5019779;28;20518;-73
2021/12/12 01:34:34;;;;;;;54.08;23.08;;;;;;;2.92;nan;99756.47;5015383;28;20060;-73
2021/12/12 01:40:11;;;;;;;58.42;23.98;;;;;;;2.96;nan;99757.69;5034321;28;20953;-69
2021/12/12 01:43:09;;;;;;;60.50;24.33;;;;;;;2.95;nan;99757.91;5023475;28;20128;-69
2021/12/12 01:46:00;;;;;;;53.35;22.95;;;;;;;2.94;nan;99748.47;5022541;28;20053;-70
2021/12/12 01:48:54;;;;;;;55.45;21.90;;;;;;;2.94;nan;99738.88;5025211;28;20377;-70
2021/12/12 01:51:43;;;;;;;50.90;21.17;;;;;;;2.93;nan;99739.88;5014649;28;20029;-70
2021/12/12 01:54:42;;;;;;;56.13;22.03;;;;;;;2.87;nan;99719.81;5010253;28;20112;-69
2021/12/12 01:57:33;;;;;;;55.65;23.67;;;;;;;2.93;nan;99718.28;5024737;28;20511;-68
2021/12/12 02:00:36;;;;;;;51.70;22.10;;;;;;;2.88;nan;99707.66;5017060;28;20041;-69
2021/12/12 02:03:25;;;;;;;51.92;22.20;;;;;;;2.89;nan;99707.44;5027008;28;20045;-70
2021/12/12 02:06:13;;;;;;;51.50;22.63;;;;;;;2.81;nan;99697.19;5023497;28;20049;-69
2021/12/12 02:09:00;;;;;;;49.28;20.00;;;;;;;2.92;nan;99704.47;5038541;28;20128;-70
2021/12/12 02:11:48;;;;;;;55.22;21.45;;;;;;;2.93;nan;99700.88;5025525;28;20507;-70
2021/12/12 02:14:37;;;;;;;51.95;21.77;;;;;;;2.92;nan;99686.28;5020310;28;20046;-70
2021/12/12 02:17:32;;;;;;;51.10;22.07;;;;;;;2.91;nan;99695.03;5030305;28;20513;-70
2021/12/12 02:20:33;;;;;;;55.03;21.65;;;;;;;2.95;nan;99688.47;5028660;28;20473;-70
2021/12/12 02:35:31;;;;;;;45.03;20.25;;;;;;;2.98;nan;99677.69;5020087;28;20053;-73
2021/12/12 02:38:23;;;;;;;42.65;19.75;;;;;;;2.97;nan;99673.50;5028848;28;20619;-73
2021/12/12 02:41:12;;;;;;;44.42;20.52;;;;;;;2.97;nan;99672.69;5020239;28;20045;-73
2021/12/12 02:44:01;;;;;;;46.40;19.58;;;;;;;2.90;nan;99657.06;5016506;28;20038;-73
2021/12/12 02:46:48;;;;;;;40.13;18.02;;;;;;;3.00;nan;99663.69;5037797;28;20037;-73
2021/12/12 02:52:28;;;;;;;41.13;19.00;;;;;;;3.01;nan;99667.88;5036681;28;20498;-73
2021/12/12 02:55:20;;;;;;;39.60;18.75;;;;;;;2.95;nan;99653.88;5047033;28;20246;-73
2021/12/12 02:58:09;;;;;;;39.05;17.17;;;;;;;2.99;nan;99662.88;5041757;28;20571;-74
2021/12/12 03:01:19;;;;;;;43.13;18.63;;;;;;;3.02;nan;99657.31;5021963;28;20048;-74
2021/12/12 03:04:05;;;;;;;34.38;15.60;;;;;;;3.01;nan;99647.09;5020535;28;20482;-74
2021/12/12 03:06:52;;;;;;;37.00;17.75;;;;;;;2.96;nan;99642.47;5016443;28;20504;-73
2021/12/12 03:09:43;;;;;;;33.78;16.48;;;;;;;2.87;nan;99633.22;5031046;28;20108;-72
2021/12/12 03:12:33;;;;;;;35.95;17.50;;;;;;;2.91;nan;99627.44;5022196;28;20170;-73
2021/12/12 03:15:26;;;;;;;37.97;17.27;;;;;;;2.93;nan;99625.44;5012205;28;20091;-73
2021/12/12 03:18:17;;;;;;;33.33;15.85;;;;;;;2.94;nan;99628.84;5024518;28;20037;-73
2021/12/12 03:21:14;;;;;;;36.38;17.42;;;;;;;2.87;nan;99609.81;5023518;28;20054;-73
2021/12/12 03:24:08;;;;;;;35.28;16.88;;;;;;;2.94;nan;99631.44;5012417;28;20156;-74
2021/12/12 03:26:57;;;;;;;40.25;17.92;;;;;;;2.92;nan;99636.88;5029568;28;20044;-74
2021/12/12 03:29:45;;;;;;;37.28;16.83;;;;;;;2.89;nan;99631.22;5023461;28;20048;-73
2021/12/12 03:32:30;;;;;;;38.95;17.45;;;;;;;2.91;nan;99639.66;5032470;28;20052;-73
2021/12/12 03:35:17;;;;;;;40.05;17.48;;;;;;;2.91;nan;99629.25;5038702;28;20044;-74
2021/12/12 03:38:05;;;;;;;37.85;17.50;;;;;;;2.84;nan;99623.22;5021860;28;20037;-73
2021/12/12 03:40:51;;;;;;;42.40;18.60;;;;;;;2.83;nan;99619.81;5019788;28;20314;-73
2021/12/12 03:43:37;;;;;;;41.95;19.80;;;;;;;2.83;nan;99630.22;5030820;28;20392;-74
2021/12/12 03:46:23;;;;;;;36.72;17.10;;;;;;;2.80;nan;99617.59;5031614;28;20045;-74
2021/12/12 03:49:10;;;;;;;42.60;19.27;;;;;;;2.79;nan;99613.38;5015108;28;20037;-74
2021/12/12 03:51:55;;;;;;;41.90;19.15;;;;;;;2.79;nan;99616.00;5033756;28;20408;-73
2021/12/12 03:54:46;;;;;;;38.33;17.83;;;;;;;2.81;nan;99619.19;5031276;28;20411;-70
2021/12/12 03:57:32;;;;;;;37.20;16.45;;;;;;;2.78;nan;99611.78;5031236;28;20399;-69
2021/12/12 04:00:24;;;;;;;43.05;19.83;;;;;;;2.72;nan;99609.97;5023345;28;20120;-70
2021/12/12 04:03:12;;;;;;;46.22;19.60;;;;;;;2.70;nan;99622.34;5016989;28;20041;-69
2021/12/12 04:06:01;;;;;;;43.80;18.65;;;;;;;2.71;nan;99614.34;5028535;28;20037;-70
2021/12/12 04:08:50;;;;;;;39.50;14.70;;;;;;;2.66;nan;99606.34;5025864;28;20042;-70
2021/12/12 04:11:41;;;;;;;44.08;17.73;;;;;;;2.66;nan;99595.94;5035056;28;20025;-70
2021/12/12 04:14:28;;;;;;;42.78;18.58;;;;;;;2.57;nan;99597.09;5027259;28;20025;-69
2021/12/12 04:17:17;;;;;;;46.85;18.02;;;;;;;2.64;nan;99613.53;5019579;28;20131;-69
2021/12/12 04:20:14;;;;;;;41.85;18.42;;;;;;;2.62;nan;99612.91;5031422;28;20510;-74
2021/12/12 04:23:00;;;;;;;38.67;16.02;;;;;;;2.61;nan;99628.69;5031426;28;20061;-74
2021/12/12 04:25:46;;;;;;;41.42;17.70;;;;;;;2.50;nan;99602.25;5034465;28;20177;-73
2021/12/12 04:28:32;;;;;;;40.10;16.67;;;;;;;2.58;nan;99611.69;5016714;28;20049;-73
2021/12/12 04:31:17;;;;;;;39.45;15.95;;;;;;;2.48;nan;99595.63;5022066;28;20125;-73
2021/12/12 04:34:05;;;;;;;43.83;17.23;;;;;;;2.52;nan;99618.47;5013423;28;20037;-74
2021/12/12 04:36:52;;;;;;;39.55;16.98;;;;;;;2.49;nan;99608.44;5038302;28;20041;-74
2021/12/12 04:39:41;;;;;;;39.60;16.52;;;;;;;2.49;nan;99618.84;5039658;28;20412;-74
2021/12/12 04:42:34;;;;;;;42.38;17.27;;;;;;;2.44;nan;99613.44;5022068;28;20037;-73
2021/12/12 04:45:58;;;;;;;42.22;16.17;;;;;;;2.47;nan;99623.44;5027337;28;20108;-74
2021/12/12 04:52:01;;;;;;;38.53;15.18;;;;;;;2.42;nan;99617.19;5028841;28;20072;-73
2021/12/12 04:54:54;;;;;;;31.30;13.30;;;;;;;2.32;nan;99613.16;5025946;28;20034;-73
2021/12/12 04:57:46;;;;;;;35.97;15.02;;;;;;;2.38;nan;99626.38;5027779;28;20041;-73
2021/12/12 05:00:40;;;;;;;32.70;14.52;;;;;;;2.32;nan;99612.31;5024691;28;20042;-73
2021/12/12 05:03:37;;;;;;;35.03;14.23;;;;;;;2.34;nan;99620.72;5035991;28;20045;-73
2021/12/12 05:06:39;;;;;;;31.80;12.88;;;;;;;2.37;nan;99627.34;5027788;28;20412;-73
2021/12/12 05:09:51;;;;;;;35.17;12.80;;;;;;;2.34;nan;99625.94;5026345;28;20033;-73
2021/12/12 05:12:44;;;;;;;33.20;14.38;;;;;;;2.25;nan;99612.31;5018397;28;20049;-73
2021/12/12 05:15:37;;;;;;;28.50;12.45;;;;;;;2.31;nan;99619.31;5011921;28;20026;-73
2021/12/12 05:18:28;;;;;;;27.05;13.23;;;;;;;2.30;nan;99628.13;5033378;28;20045;-73
2021/12/12 05:21:17;;;;;;;35.10;14.55;;;;;;;2.12;nan;99604.41;5014250;28;20037;-74
2021/12/12 05:24:07;;;;;;;32.85;14.32;;;;;;;2.29;nan;99605.72;5013011;28;20038;-74
2021/12/12 05:27:01;;;;;;;29.77;12.88;;;;;;;2.29;nan;99639.50;5031491;28;20041;-74
2021/12/12 05:30:04;;;;;;;32.53;14.07;;;;;;;2.31;nan;99623.72;5012762;28;20117;-74
2021/12/12 05:32:51;;;;;;;25.05;12.63;;;;;;;2.26;nan;99624.28;5043857;28;20044;-74
2021/12/12 05:35:39;;;;;;;24.95;9.77;;;;;;;2.31;nan;99636.72;5027599;28;20396;-73
2021/12/12 05:38:27;;;;;;;29.58;11.52;;;;;;;2.28;nan;99632.69;5043261;28;20043;-73
2021/12/12 05:41:19;;;;;;;28.90;14.27;;;;;;;2.27;nan;99636.28;5017944;28;20034;-73
2021/12/12 05:44:05;;;;;;;31.17;13.57;;;;;;;2.19;nan;99620.84;5023056;28;20484;-74
2021/12/12 05:46:58;;;;;;;24.70;10.18;;;;;;;2.19;nan;99615.66;5011690;28;20057;-73
2021/12/12 05:49:44;;;;;;;27.83;11.77;;;;;;;2.18;nan;99627.03;5028852;28;20037;-73
2021/12/12 05:52:30;;;;;;;24.98;10.82;;;;;;;2.26;nan;99628.69;5024150;28;20095;-73
2021/12/12 05:55:16;;;;;;;31.48;13.15;;;;;;;1.85;nan;99578.25;5026158;28;20044;-73
2021/12/12 05:58:07;;;;;;;28.88;12.57;;;;;;;2.23;nan;99632.47;5020589;28;20041;-73
2021/12/12 06:00:57;;;;;;;24.38;11.65;;;;;;;2.24;nan;99643.66;5021017;28;20795;-74
2021/12/12 06:03:46;;;;;;;24.85;10.68;;;;;;;2.17;nan;99640.22;5026544;28;20479;-74
2021/12/12 06:06:35;;;;;;;30.83;13.68;;;;;;;2.21;nan;99655.22;5027886;28;20037;-74
2021/12/12 06:09:21;;;;;;;;;;;;;;;2.20;nan;99645.81;5025885;28;20429;-75
2021/12/12 06:12:08;;;;;;;28.50;12.55;;;;;;;2.08;nan;99629.13;5021061;28;19921;-74
2021/12/12 06:14:55;;;;;;;31.38;13.15;;;;;;;2.18;nan;99644.41;5015430;28;20044;-73
2021/12/12 06:17:42;;;;;;;27.80;12.50;;;;;;;2.14;nan;99641.38;5047961;28;20038;-74
2021/12/12 06:20:28;;;;;;;28.88;12.13;;;;;;;2.17;nan;99651.38;5011012;28;20034;-73
2021/12/12 06:23:15;;;;;;;31.90;13.48;;;;;;;2.17;nan;99659.19;5021028;28;20042;-72
2021/12/12 06:26:02;;;;;;;28.73;12.52;;;;;;;2.12;nan;99657.16;5019475;28;20041;-72
2021/12/12 06:28:49;;;;;;;31.23;12.38;;;;;;;2.19;nan;99652.00;5019420;28;20068;-74
2021/12/12 06:31:44;;;;;;;27.98;12.20;;;;;;;2.13;nan;99639.75;5026599;28;20037;-73
2021/12/12 06:34:30;;;;;;;31.17;13.70;;;;;;;2.13;nan;99658.78;5037576;28;20041;-73
2021/12/12 06:37:17;;;;;;;26.85;11.73;;;;;;;2.18;nan;99668.59;5029765;28;20467;-74
2021/12/12 06:40:06;;;;;;;28.15;11.75;;;;;;;2.15;nan;99671.53;5025511;28;20044;-73
2021/12/12 06:42:54;;;;;;;;;;;;;;;2.18;nan;99665.19;5030318;28;20395;-73
2021/12/12 06:45:40;;;;;;;29.67;11.30;;;;;;;2.10;nan;99672.09;5029978;28;19917;-72
2021/12/12 06:48:26;;;;;;;34.67;14.18;;;;;;;2.18;nan;99673.78;5031959;28;20450;-73
2021/12/12 06:51:12;;;;;;;30.00;12.55;;;;;;;2.11;nan;99670.34;5031807;28;20041;-73
2021/12/12 06:53:58;;;;;;;32.65;14.18;;;;;;;1.98;nan;99654.63;5026875;28;20049;-74
2021/12/12 06:56:46;;;;;;;27.35;11.48;;;;;;;2.17;nan;99677.38;5025901;28;20025;-73
2021/12/12 06:59:34;;;;;;;27.73;12.50;;;;;;;2.18;nan;99681.59;5030169;28;20036;-73
2021/12/12 07:02:23;;;;;;;28.17;12.07;;;;;;;2.18;nan;99681.59;5026071;28;20469;-73
2021/12/12 07:05:13;;;;;;;27.02;11.73;;;;;;;2.22;nan;99695.00;5025977;28;20765;-74
2021/12/12 07:08:03;;;;;;;28.75;12.50;;;;;;;2.19;nan;99682.38;5025392;28;20076;-74
2021/12/12 07:10:49;;;;;;;23.98;10.35;;;;;;;2.12;nan;99672.72;5024409;28;21521;-74
2021/12/12 07:13:36;;;;;;;33.20;13.75;;;;;;;2.17;nan;99689.56;5017393;28;20072;-73
2021/12/12 07:16:23;;;;;;;32.05;14.02;;;;;;;2.22;nan;99698.38;5025193;28;20053;-73
2021/12/12 07:19:09;;;;;;;30.13;13.40;;;;;;;2.22;nan;99703.56;5023945;28;20033;-74
2021/12/12 07:21:59;;;;;;;30.95;14.05;;;;;;;2.21;nan;99714.16;5025338;28;20049;-74
2021/12/12 07:24:45;;;;;;;;;;;;;;;2.22;nan;99708.78;5025760;28;20143;-74
2021/12/12 07:27:31;;;;;;;28.08;11.98;;;;;;;2.22;nan;99682.78;5025492;28;19932;-74
2021/12/12 07:30:18;;;;;;;30.27;12.88;;;;;;;2.14;nan;99706.31;5024197;28;20059;-74
2021/12/12 07:33:04;;;;;;;28.15;13.05;;;;;;;2.24;nan;99721.59;5025391;28;20041;-74
2021/12/12 07:35:52;;;;;;;25.30;10.27;;;;;;;2.15;nan;99707.91;5022459;28;20072;-73
2021/12/12 07:38:43;;;;;;;20.27;8.80;;;;;;;2.13;nan;99709.88;5024476;28;20033;-74
2021/12/12 07:41:30;;;;;;;28.88;12.50;;;;;;;2.29;nan;99735.59;5023808;28;20037;-73
2021/12/12 07:44:27;;;;;;;28.15;11.88;;;;;;;2.27;nan;99740.19;5027312;28;20416;-73
2021/12/12 07:47:15;;;;;;;25.23;10.23;;;;;;;2.29;nan;99730.41;5032850;28;20033;-75
2021/12/12 07:50:06;;;;;;;27.10;12.63;;;;;;;2.26;nan;99740.38;5022786;28;20099;-74
2021/12/12 07:52:52;;;;;;;23.98;10.93;;;;;;;2.06;nan;99706.44;5047718;28;20052;-74
2021/12/12 07:55:38;;;;;;;23.13;9.65;;;;;;;2.34;nan;99753.22;5031589;28;20037;-71
2021/12/12 07:58:25;;;;;;;29.48;11.98;;;;;;;2.31;nan;99741.41;5032506;28;20037;-73
2021/12/12 08:01:13;;;;;;;28.00;11.85;;;;;;;2.34;nan;99758.44;5022612;28;20420;-73
2021/12/12 08:03:59;;;;;;;22.92;10.05;;;;;;;2.37;nan;99754.66;5026576;28;20510;-73
2021/12/12 08:06:45;;;;;;;25.23;11.30;;;;;;;2.33;nan;99757.63;5034738;28;20161;-74
2021/12/12 08:09:31;;;;;;;26.50;10.85;;;;;;;2.33;nan;99769.81;5026392;28;20080;-73
2021/12/12 08:12:23;;;;;;;26.13;10.90;;;;;;;2.37;nan;99775.44;5033855;28;20029;-76
2021/12/12 08:15:11;;;;;;;25.95;11.45;;;;;;;2.24;nan;99761.34;5012297;28;20034;-75
2021/12/12 08:18:00;;;;;;;24.15;11.18;;;;;;;2.29;nan;99764.19;5023371;28;20050;-76
2021/12/12 08:20:49;;;;;;;24.08;11.27;;;;;;;2.40;nan;99786.28;5031908;28;20043;-75
2021/12/12 08:23:35;;;;;;;22.75;11.20;;;;;;;2.39;nan;99789.84;5017856;28;20563;-77
2021/12/12 08:26:22;;;;;;;21.63;10.55;;;;;;;2.29;nan;99784.97;5024783;28;20077;-76
2021/12/12 08:29:10;;;;;;;25.35;11.27;;;;;;;2.33;nan;99799.19;5028267;28;20037;-76
2021/12/12 08:31:57;;;;;;;23.45;11.23;;;;;;;2.31;nan;99792.59;5026504;28;20128;-76
2021/12/12 08:34:43;;;;;;;19.50;9.40;;;;;;;2.32;nan;99794.19;5012194;28;20025;-77
2021/12/12 08:37:30;;;;;;;19.73;8.77;;;;;;;2.45;nan;99803.91;5026102;28;20492;-77
2021/12/12 08:40:23;;;;;;;20.88;10.00;;;;;;;2.43;nan;99822.28;5026485;28;20037;-77
2021/12/12 08:43:12;;;;;;;20.48;9.05;;;;;;;2.38;nan;99816.84;5028438;28;20519;-77
2021/12/12 08:46:02;;;;;;;23.58;10.45;;;;;;;2.45;nan;99824.69;5030118;28;20411;-77
2021/12/12 08:48:51;;;;;;;17.58;8.70;;;;;;;2.48;nan;99824.31;5031006;28;20609;-77
2021/12/12 08:51:43;;;;;;;18.02;8.18;;;;;;;2.45;nan;99846.28;5033374;28;20029;-77
2021/12/12 08:54:31;;;;;;;18.50;8.52;;;;;;;2.04;nan;99781.94;5031106;28;20033;-77
2021/12/12 08:57:33;;;;;;;18.15;8.93;;;;;;;2.36;nan;99828.41;5028423;28;20037;-76
2021/12/12 09:00:22;;;;;;;19.15;9.13;;;;;;;2.48;nan;99858.09;5031784;28;20033;-76
2021/12/12 09:03:09;;;;;;;19.88;9.48;;;;;;;2.41;nan;99845.03;5028373;28;20044;-69
2021/12/12 09:05:55;;;;;;;19.38;9.93;;;;;;;2.42;nan;99851.03;5028400;28;20499;-70
2021/12/12 09:08:48;;;;;;;16.42;8.35;;;;;;;2.52;nan;99860.16;5020436;28;20046;-70
2021/12/12 09:11:34;;;;;;;17.30;8.45;;;;;;;2.52;nan;99860.16;5025464;28;20377;-69
2021/12/12 09:14:34;;;;;;;17.27;8.30;;;;;;;2.53;nan;99858.34;5028158;28;20052;-70
2021/12/12 09:17:39;;;;;;;19.38;8.90;;;;;;;2.56;nan;99868.38;5015345;28;20503;-69
2021/12/12 09:20:46;;;;;;;21.17;9.80;;;;;;;2.61;nan;99863.44;5019126;28;20041;-69
2021/12/12 09:23:48;;;;;;;17.23;8.88;;;;;;;2.48;nan;99839.91;5023542;28;20033;-70
2021/12/12 09:26:38;;;;;;;17.13;8.65;;;;;;;2.57;nan;99870.00;5029641;28;20064;-69
2021/12/12 09:29:33;;;;;;;18.00;8.30;;;;;;;2.57;nan;99862.19;5029710;28;20072;-69
2021/12/12 09:32:43;;;;;;;17.52;8.80;;;;;;;2.67;nan;99870.47;5026590;28;20057;-68
2021/12/12 09:35:35;;;;;;;17.27;8.60;;;;;;;2.71;nan;99883.91;5030948;28;20041;-69
2021/12/12 09:38:29;;;;;;;18.70;9.38;;;;;;;2.60;nan;99871.41;5034980;28;20040;-69
2021/12/12 09:41:30;;;;;;;23.65;10.32;;;;;;;2.71;nan;99889.13;5034295;28;20112;-68
2021/12/12 09:44:37;;;;;;;17.73;9.15;;;;;;;2.72;nan;99875.91;5029784;28;20037;-69
2021/12/12 09:47:46;;;;;;;16.83;8.75;;;;;;;2.71;nan;99882.13;5028106;28;20512;-69
2021/12/12 09:54:13;;;;;;;16.63;8.57;;;;;;;2.67;nan;99886.06;5012865;28;20045;-69
2021/12/12 09:57:35;;;;;;;16.92;8.27;;;;;;;2.66;nan;99888.84;5027868;28;20079;-68
2021/12/12 10:00:41;;;;;;;19.42;9.10;;;;;;;2.67;nan;99899.06;5019861;28;20095;-68
2021/12/12 10:03:37;;;;;;;19.63;8.98;;;;;;;2.63;nan;99889.22;5033203;28;20532;-69
2021/12/12 10:06:44;;;;;;;14.13;7.78;;;;;;;2.64;nan;99886.44;5029805;28;20491;-69
2021/12/12 10:09:54;;;;;;;16.27;8.00;;;;;;;2.69;nan;99888.50;5030453;28;20033;-69
2021/12/12 10:12:48;;;;;;;14.77;8.32;;;;;;;2.63;nan;99892.63;5015062;28;20029;-69
2021/12/12 10:15:41;;;;;;;17.30;8.80;;;;;;;2.59;nan;99891.41;5030006;28;20034;-69
2021/12/12 10:18:30;;;;;;;15.73;8.20;;;;;;;2.72;nan;99908.91;5030943;28;20037;-69
2021/12/12 10:21:44;;;;;;;15.02;7.95;;;;;;;2.72;nan;99907.13;5030389;28;20040;-69
2021/12/12 10:24:55;;;;;;;13.45;7.55;;;;;;;2.71;nan;99902.91;5009485;28;20037;-68
2021/12/12 10:27:56;;;;;;;16.95;7.50;;;;;;;2.74;nan;99907.75;5028599;28;20033;-69
2021/12/12 10:31:02;;;;;;;17.88;9.10;;;;;;;2.72;nan;99914.91;5029744;28;20495;-69
2021/12/12 10:34:17;;;;;;;18.15;9.13;;;;;;;2.71;nan;99910.72;5030334;28;20099;-69
2021/12/12 10:37:14;;;;;;;20.75;9.65;;;;;;;2.75;nan;99913.72;5017040;28;20030;-70
2021/12/12 10:40:08;;;;;;;17.00;7.70;;;;;;;2.82;nan;99929.41;5025023;28;20033;-70
2021/12/12 10:42:59;;;;;;;15.35;8.40;;;;;;;2.43;nan;99884.63;5028943;28;20044;-70
2021/12/12 10:45:52;;;;;;;15.70;6.07;;;;;;;2.85;nan;99942.84;5023806;28;20033;-67
2021/12/12 10:48:57;;;;;;;15.68;8.85;;;;;;;2.71;nan;99928.13;5027941;28;20038;-67
2021/12/12 10:51:51;;;;;;;13.90;7.95;;;;;;;2.83;nan;99950.03;5026884;28;20037;-67
2021/12/12 10:54:47;;;;;;;18.40;10.63;;;;;;;2.80;nan;99945.19;5026661;28;20065;-68
2021/12/12 10:57:37;;;;;;;13.70;8.13;;;;;;;2.87;nan;99955.66;5040149;28;20128;-68
2021/12/12 11:00:26;;;;;;;18.73;9.85;;;;;;;2.79;nan;99940.19;5027676;28;20515;-68
2021/12/12 11:03:21;;;;;;;21.27;10.80;;;;;;;2.73;nan;99952.94;5027266;28;20152;-69
2021/12/12 11:06:15;;;;;;;19.67;10.70;;;;;;;2.86;nan;99980.06;5025701;28;20551;-69
2021/12/12 11:09:15;;;;;;;22.48;12.57;;;;;;;2.89;nan;99985.69;5027140;28;20048;-68
2021/12/12 11:12:10;;;;;;;22.23;11.05;;;;;;;2.68;nan;99959.66;5022191;28;20033;-68
2021/12/12 11:15:09;;;;;;;18.38;10.20;;;;;;;2.85;nan;100001.84;5030537;28;20090;-69
2021/12/12 11:18:03;;;;;;;17.23;10.20;;;;;;;2.92;nan;100008.75;5030387;28;20030;-69
2021/12/12 11:21:02;;;;;;;20.52;9.43;;;;;;;2.87;nan;100016.25;5032741;28;20047;-68
2021/12/12 11:24:19;;;;;;;17.75;9.68;;;;;;;2.93;nan;100022.53;5031744;28;20026;-68
2021/12/12 11:27:25;;;;;;;23.42;13.50;;;;;;;2.91;nan;100029.72;5025007;28;20103;-69
2021/12/12 11:30:36;;;;;;;20.92;12.25;;;;;;;2.85;nan;100022.63;5030523;28;20053;-69
2021/12/12 11:33:25;;;;;;;29.60;16.17;;;;;;;2.80;nan;100023.19;5030762;28;20033;-69
2021/12/12 11:36:15;;;;;;;22.00;11.88;;;;;;;2.80;nan;100020.59;5030240;28;20069;-69
2021/12/12 11:39:05;;;;;;;19.65;10.48;;;;;;;2.92;nan;100046.91;5032022;28;20044;-69
2021/12/12 11:42:05;;;;;;;16.90;8.80;;;;;;;2.82;nan;100042.00;5029915;28;20063;-69
2021/12/12 11:45:18;;;;;;;18.92;10.13;;;;;;;2.91;nan;100058.31;5029036;28;20530;-69
2021/12/12 11:48:28;;;;;;;20.73;10.13;;;;;;;2.92;nan;100059.94;5029729;28;20048;-69
2021/12/12 11:51:31;;;;;;;24.88;11.18;;;;;;;2.92;nan;100065.13;5028701;28;20510;-69
2021/12/12 11:54:32;;;;;;;26.60;12.27;;;;;;;2.91;nan;100068.72;5030230;28;20479;-69
2021/12/12 11:57:29;;;;;;;25.42;11.88;;;;;;;2.81;nan;100068.22;5028638;28;20428;-70
2021/12/12 12:00:22;;;;;;;24.00;12.32;;;;;;;2.92;nan;100081.56;5029446;28;20045;-70
2021/12/12 12:03:27;;;;;;;24.63;12.70;;;;;;;2.53;nan;100024.69;5029813;28;20080;-70
2021/12/12 12:06:22;;;;;;;25.77;14.35;;;;;;;2.87;nan;100077.88;5026972;28;20124;-69
2021/12/12 12:09:32;;;;;;;25.60;13.38;;;;;;;2.91;nan;100099.94;5028890;28;20089;-69
2021/12/12 12:12:48;;;;;;;23.67;12.10;;;;;;;2.90;nan;100093.94;5031716;28;20095;-69
2021/12/12 12:15:59;;;;;;;25.55;13.45;;;;;;;2.88;nan;100089.91;5030045;28;20032;-69
2021/12/12 12:19:07;;;;;;;1999.90;699.50;;;;;;;3.13;nan;100096.38;5029157;28;20411;-68
2021/12/12 12:22:08;;;;;;;43.30;20.65;;;;;;;3.24;nan;100107.31;5030275;28;20055;-69
2021/12/12 12:25:30;;;;;;;38.70;18.70;;;;;;;3.12;nan;100110.38;5032681;28;20495;-68
2021/12/12 12:28:15;;;;;;;33.45;15.82;;;;;;;3.10;nan;100121.97;5029311;28;20076;-68
2021/12/12 12:31:08;;;;;;;35.95;15.85;;;;;;;3.04;nan;100118.31;5030483;28;20122;-68
2021/12/12 12:33:57;;;;;;;26.70;13.85;;;;;;;3.01;nan;100115.25;5027156;28;20033;-67
2021/12/12 12:37:04;;;;;;;26.60;13.80;;;;;;;3.00;nan;100126.66;5027420;28;20030;-68
2021/12/12 12:40:29;;;;;;;26.95;14.25;;;;;;;2.94;nan;100122.97;5016790;28;20243;-68
2021/12/12 12:43:24;;;;;;;28.33;13.90;;;;;;;3.01;nan;100141.25;5035272;28;20044;-67
2021/12/12 12:46:34;;;;;;;29.05;15.07;;;;;;;3.02;nan;100148.06;5027731;28;20415;-68
2021/12/12 12:49:58;;;;;;;26.90;14.25;;;;;;;3.00;nan;100155.28;5032134;28;20052;-68
2021/12/12 12:52:56;;;;;;;28.95;13.55;;;;;;;3.00;nan;100157.88;5030717;28;20463;-68
2021/12/12 12:56:29;;;;;;;25.73;13.48;;;;;;;3.02;nan;100161.91;5030379;28;20041;-69
2021/12/12 12:59:37;;;;;;;32.92;17.00;;;;;;;3.01;nan;100168.06;5008876;28;20139;-68
2021/12/12 13:02:37;;;;;;;35.08;18.52;;;;;;;3.03;nan;100166.09;5007402;28;20054;-68
2021/12/12 13:06:21;;;;;;;31.17;15.40;;;;;;;2.95;nan;100159.22;5011183;28;20038;-69
2021/12/12 13:09:14;;;;;;;32.63;15.60;;;;;;;3.05;nan;100179.75;4999496;28;20530;-68
2021/12/12 13:12:27;;;;;;;30.25;15.18;;;;;;;3.03;nan;100189.50;5018509;28;20493;-68
2021/12/12 13:15:21;;;;;;;29.92;14.93;;;;;;;3.03;nan;100180.91;5007776;28;20132;-68
2021/12/12 13:18:54;;;;;;;28.73;15.07;;;;;;;3.06;nan;100196.16;5004735;28;20050;-68
2021/12/12 13:21:45;;;;;;;33.40;16.08;;;;;;;3.06;nan;100201.34;4925230;29;20232;-68
2021/12/12 13:24:57;;;;;;;34.30;16.25;;;;;;;3.09;nan;100212.22;4924857;29;20040;-68
2021/12/12 13:28:08;;;;;;;29.23;15.73;;;;;;;3.05;nan;100207.56;4919710;29;20497;-69
2021/12/12 13:31:01;;;;;;;31.40;16.25;;;;;;;3.07;nan;100235.00;4921861;29;20435;-69
2021/12/12 13:34:07;;;;;;;28.63;15.23;;;;;;;3.04;nan;100227.56;4914490;29;20544;-68
2021/12/12 13:37:07;;;;;;;33.42;17.65;;;;;;;3.09;nan;100234.81;4929796;29;20050;-69
2021/12/12 13:40:20;;;;;;;30.92;16.17;;;;;;;2.97;nan;100221.47;4933403;28;20500;-69
2021/12/12 13:43:21;;;;;;;34.45;16.27;;;;;;;3.06;nan;100240.38;4931871;29;20605;-70
2021/12/12 13:46:52;;;;;;;34.78;16.83;;;;;;;3.03;nan;100248.53;4931429;29;20067;-69
2021/12/12 13:50:04;;;;;;;31.55;15.48;;;;;;;3.05;nan;100244.78;4933628;28;20035;-68
2021/12/12 13:53:11;;;;;;;32.67;16.90;;;;;;;3.02;nan;100246.91;5011544;28;20049;-69
2021/12/12 13:56:16;;;;;;;37.35;18.95;;;;;;;2.96;nan;100243.25;5029236;28;20164;-68
2021/12/12 13:59:14;;;;;;;33.35;19.15;;;;;;;3.00;nan;100256.72;5017755;28;20045;-69
2021/12/12 14:02:06;;;;;;;32.42;16.58;;;;;;;3.07;nan;100270.63;5028631;28;20087;-69
2021/12/12 14:05:06;;;;;;;23.50;13.48;;;;;;;3.06;nan;100269.78;5027499;28;20042;-68
2021/12/12 14:08:14;;;;;;;19.42;11.07;;;;;;;3.01;nan;100284.31;5030825;28;20033;-69
2021/12/12 14:11:07;;;;;;;21.42;11.38;;;;;;;2.94;nan;100273.81;5018329;28;20057;-69
2021/12/12 14:14:00;;;;;;;22.42;12.13;;;;;;;2.87;nan;100281.53;5026869;28;20428;-69